createdAt,value
2018-10-04T00:01:29.981Z,27.95
2018-10-04T00:03:58.227Z,14.43
2018-10-04T00:06:25.538Z,13.45
2018-10-04T00:08:52.850Z,14.70
2018-10-04T00:11:20.334Z,14.03
2018-10-04T00:13:47.694Z,19.17
2018-10-04T00:16:15.054Z,13.30
2018-10-04T00:18:42.374Z,18.42
2018-10-04T00:21:09.668Z,18.30
2018-10-04T00:23:37.007Z,18.02
2018-10-04T00:26:04.323Z,23.60
2018-10-04T00:28:32.107Z,17.30
2018-10-04T00:30:59.442Z,22.40
2018-10-04T00:33:26.805Z,13.93
2018-10-04T00:35:54.150Z,12.68
2018-10-04T00:38:21.480Z,12.58
2018-10-04T00:40:49.845Z,19.32
2018-10-04T00:43:18.262Z,12.98
2018-10-04T00:45:45.784Z,17.45
2018-10-04T00:48:13.087Z,27.52
2018-10-04T00:50:40.446Z,9.80
2018-10-04T00:53:07.801Z,15.00
2018-10-04T00:55:35.152Z,15.45
2018-10-04T00:58:02.501Z,15.00
2018-10-04T01:00:29.869Z,16.90
2018-10-04T01:02:57.224Z,15.95
2018-10-04T01:05:24.627Z,20.70
2018-10-04T01:07:51.970Z,20.52
2018-10-04T01:10:19.277Z,15.83
2018-10-04T01:12:46.672Z,14.83
2018-10-04T01:15:13.979Z,18.50
2018-10-04T01:17:41.276Z,22.93
2018-10-04T01:20:08.578Z,16.07
2018-10-04T01:22:35.855Z,17.98
2018-10-04T01:25:04.202Z,17.60
2018-10-04T01:27:31.518Z,11.93
2018-10-04T01:29:58.886Z,18.32
2018-10-04T01:32:26.706Z,13.48
2018-10-04T01:34:54.064Z,19.05
2018-10-04T01:37:21.379Z,19.95
2018-10-04T01:39:48.707Z,16.70
2018-10-04T01:42:15.999Z,16.17
2018-10-04T01:44:43.297Z,17.60
2018-10-04T01:47:10.635Z,20.27
2018-10-04T01:49:37.967Z,17.80
2018-10-04T01:52:05.371Z,13.13
2018-10-04T01:54:32.708Z,22.37
2018-10-04T01:57:00.088Z,16.27
2018-10-04T01:59:27.460Z,13.78
2018-10-04T02:01:54.790Z,13.98
2018-10-04T02:04:22.163Z,14.63
2018-10-04T02:06:49.489Z,14.63
2018-10-04T02:09:16.820Z,18.45
2018-10-04T02:11:44.146Z,14.78
2018-10-04T02:14:11.422Z,9.73
2018-10-04T02:16:38.783Z,13.40
2018-10-04T02:19:06.130Z,12.00
2018-10-04T02:21:33.461Z,13.80
2018-10-04T02:24:00.945Z,12.15
2018-10-04T02:26:28.274Z,21.17
2018-10-04T02:28:55.606Z,12.55
2018-10-04T02:31:22.961Z,12.43
2018-10-04T02:33:50.282Z,13.90
2018-10-04T02:36:17.647Z,15.48
2018-10-04T02:38:46.452Z,10.63
2018-10-04T02:41:13.773Z,22.85
2018-10-04T02:43:41.177Z,17.92
2018-10-04T02:46:08.495Z,16.10
2018-10-04T02:48:37.009Z,19.02
2018-10-04T02:51:04.290Z,13.83
2018-10-04T02:53:31.599Z,14.40
2018-10-04T02:56:04.645Z,12.15
2018-10-04T02:58:31.978Z,13.08
2018-10-04T03:00:59.392Z,15.72
2018-10-04T03:03:26.762Z,12.07
2018-10-04T03:05:54.090Z,15.45
2018-10-04T03:08:21.446Z,14.60
2018-10-04T03:10:48.787Z,19.82
2018-10-04T03:13:16.157Z,13.65
2018-10-04T03:15:45.551Z,13.60
2018-10-04T03:18:12.861Z,13.98
2018-10-04T03:20:40.186Z,15.88
2018-10-04T03:23:07.535Z,18.55
2018-10-04T03:25:34.886Z,15.53
2018-10-04T03:28:02.228Z,15.25
2018-10-04T03:30:29.601Z,21.80
2018-10-04T03:32:57.055Z,13.53
2018-10-04T03:35:24.407Z,12.43
2018-10-04T03:37:51.730Z,14.70
2018-10-04T03:40:19.006Z,13.55
2018-10-04T03:42:46.391Z,19.62
2018-10-04T03:45:13.692Z,12.45
2018-10-04T03:47:41.000Z,11.10
2018-10-04T03:50:08.310Z,13.32
2018-10-04T03:52:35.639Z,10.48
2018-10-04T03:55:02.979Z,17.17
2018-10-04T03:57:30.335Z,14.78
2018-10-04T03:59:57.689Z,14.35
2018-10-04T04:02:25.084Z,16.27
2018-10-04T04:04:52.356Z,19.17
2018-10-04T04:07:19.622Z,16.02
2018-10-04T04:09:46.920Z,12.73
2018-10-04T04:12:14.221Z,17.82
2018-10-04T04:14:41.485Z,11.48
2018-10-04T04:17:08.771Z,18.65
2018-10-04T04:19:36.166Z,13.10
2018-10-04T04:22:03.486Z,12.70
2018-10-04T04:24:30.741Z,18.62
2018-10-04T04:26:58.085Z,9.20
2018-10-04T04:29:25.333Z,17.48
2018-10-04T04:31:52.660Z,15.85
2018-10-04T04:34:19.883Z,16.77
2018-10-04T04:36:47.209Z,16.75
2018-10-04T04:39:14.560Z,14.00
2018-10-04T04:41:41.871Z,14.78
2018-10-04T04:44:09.204Z,11.35
2018-10-04T04:46:36.572Z,13.30
2018-10-04T04:49:03.849Z,11.70
2018-10-04T04:51:31.233Z,8.70
2018-10-04T04:53:58.567Z,15.10
2018-10-04T04:56:25.939Z,12.65
2018-10-04T04:58:53.210Z,12.28
2018-10-04T05:01:20.514Z,16.45
2018-10-04T05:03:47.882Z,8.58
2018-10-04T05:06:15.290Z,15.63
2018-10-04T05:08:42.471Z,10.43
2018-10-04T05:11:09.775Z,11.20
2018-10-04T05:13:37.066Z,10.68
2018-10-04T05:16:04.481Z,16.60
2018-10-04T05:18:31.681Z,15.43
2018-10-04T05:20:58.978Z,10.90
2018-10-04T05:23:26.270Z,13.55
2018-10-04T05:25:56.509Z,9.00
2018-10-04T05:28:23.961Z,12.58
2018-10-04T05:30:51.302Z,13.90
2018-10-04T05:33:18.675Z,15.88
2018-10-04T05:35:46.062Z,14.50
2018-10-04T05:38:13.413Z,13.00
2018-10-04T05:40:40.754Z,10.05
2018-10-04T05:43:08.147Z,16.82
2018-10-04T05:45:35.481Z,13.95
2018-10-04T05:48:02.828Z,14.15
2018-10-04T05:50:30.251Z,14.37
2018-10-04T05:52:57.727Z,12.82
2018-10-04T05:55:25.058Z,14.03
2018-10-04T05:57:52.397Z,18.05
2018-10-04T06:00:35.395Z,16.95
2018-10-04T06:03:02.792Z,16.20
2018-10-04T06:05:30.330Z,11.60
2018-10-04T06:07:58.837Z,18.05
2018-10-04T06:10:26.226Z,10.77
2018-10-04T06:12:53.567Z,15.40
2018-10-04T06:15:20.961Z,12.40
2018-10-04T06:17:48.277Z,10.03
2018-10-04T06:20:15.770Z,25.90
2018-10-04T06:22:43.108Z,11.55
2018-10-04T06:25:10.408Z,9.98
2018-10-04T06:27:37.706Z,9.75
2018-10-04T06:30:05.279Z,13.30
2018-10-04T06:32:32.690Z,11.53
2018-10-04T06:35:00.131Z,13.93
2018-10-04T06:37:27.462Z,12.07
2018-10-04T06:39:54.875Z,12.15
2018-10-04T06:42:22.203Z,13.83
2018-10-04T06:44:49.545Z,13.37
2018-10-04T06:47:16.882Z,17.98
2018-10-04T06:49:44.190Z,19.10
2018-10-04T06:52:11.568Z,12.77
2018-10-04T06:54:38.894Z,15.48
2018-10-04T06:57:06.370Z,16.23
2018-10-04T06:59:33.780Z,12.18
2018-10-04T07:02:01.340Z,11.60
2018-10-04T07:04:28.897Z,15.45
2018-10-04T07:06:56.523Z,14.03
2018-10-04T07:09:24.080Z,16.75
2018-10-04T07:11:53.616Z,13.93
2018-10-04T07:14:20.991Z,15.97
2018-10-04T07:16:48.347Z,10.60
2018-10-04T07:19:15.761Z,11.43
2018-10-04T07:21:43.156Z,15.00
2018-10-04T07:24:10.495Z,14.80
2018-10-04T07:26:37.843Z,10.07
2018-10-04T07:29:05.379Z,18.63
2018-10-04T07:31:32.886Z,16.90
2018-10-04T07:34:00.590Z,12.93
2018-10-04T07:36:28.236Z,13.33
2018-10-04T07:38:56.301Z,13.83
2018-10-04T07:41:24.914Z,12.90
2018-10-04T07:43:53.512Z,20.13
2018-10-04T07:46:24.879Z,15.20
2018-10-04T07:48:53.276Z,13.07
2018-10-04T07:51:20.760Z,16.70
2018-10-04T07:53:48.294Z,14.23
2018-10-04T07:56:15.677Z,20.73
2018-10-04T07:58:43.187Z,15.50
2018-10-04T08:01:10.610Z,15.83
2018-10-04T08:03:37.947Z,12.93
2018-10-04T08:06:05.418Z,11.07
2018-10-04T08:08:33.011Z,13.43
2018-10-04T08:11:00.613Z,16.30
2018-10-04T08:13:28.203Z,16.00
2018-10-04T08:15:55.606Z,15.80
2018-10-04T08:18:23.079Z,12.93
2018-10-04T08:20:50.409Z,13.53
2018-10-04T08:23:17.775Z,13.13
2018-10-04T08:25:45.131Z,18.00
2018-10-04T08:28:12.482Z,17.10
2018-10-04T08:30:39.830Z,12.77
2018-10-04T08:33:07.397Z,11.10
2018-10-04T08:35:34.727Z,17.63
2018-10-04T08:38:02.466Z,13.93
2018-10-04T08:40:30.232Z,10.60
2018-10-04T08:42:57.862Z,14.40
2018-10-04T08:45:25.440Z,12.13
2018-10-04T08:47:52.991Z,11.43
2018-10-04T08:50:21.640Z,8.43
2018-10-04T08:52:58.932Z,13.07
2018-10-04T08:55:32.000Z,9.40
2018-10-04T08:57:59.331Z,12.17
2018-10-04T09:00:29.771Z,14.50
2018-10-04T09:02:59.410Z,11.40
2018-10-04T09:05:26.751Z,14.20
2018-10-04T09:07:54.316Z,18.60
2018-10-04T09:10:21.895Z,7.83
2018-10-04T09:12:49.411Z,11.23
2018-10-04T09:15:16.960Z,16.73
2018-10-04T09:17:44.299Z,14.70
2018-10-04T09:20:11.780Z,16.60
2018-10-04T09:22:39.383Z,12.63
2018-10-04T09:25:07.115Z,12.60
2018-10-04T09:27:34.491Z,13.73
2018-10-04T09:30:07.620Z,15.10
2018-10-04T09:32:35.147Z,10.33
2018-10-04T09:35:02.682Z,11.83
2018-10-04T09:37:30.220Z,10.23
2018-10-04T09:39:57.949Z,9.60
2018-10-04T09:42:25.331Z,19.33
2018-10-04T09:44:52.691Z,14.57
2018-10-04T09:47:27.566Z,12.50
2018-10-04T09:49:55.521Z,8.63
2018-10-04T09:52:23.294Z,9.90
2018-10-04T09:54:56.990Z,11.50
2018-10-04T09:57:30.135Z,14.47
2018-10-04T09:59:58.031Z,9.40
2018-10-04T10:02:31.366Z,15.57
2018-10-04T10:04:58.970Z,12.77
2018-10-04T10:07:26.605Z,8.37
2018-10-04T10:09:54.154Z,11.50
2018-10-04T10:12:21.707Z,9.20
2018-10-04T10:14:49.881Z,11.40
2018-10-04T10:17:17.446Z,15.80
2018-10-04T10:19:44.997Z,16.87
2018-10-04T10:22:12.803Z,11.43
2018-10-04T10:24:40.342Z,12.40
2018-10-04T10:27:08.513Z,8.63
2018-10-04T10:29:36.048Z,9.67
2018-10-04T10:32:03.834Z,9.73
2018-10-04T10:34:31.527Z,14.53
2018-10-04T10:36:58.974Z,10.53
2018-10-04T10:39:26.514Z,10.20
2018-10-04T10:41:54.092Z,9.83
2018-10-04T10:44:21.587Z,9.77
2018-10-04T10:46:49.121Z,10.97
2018-10-04T10:49:16.734Z,11.10
2018-10-04T10:51:44.299Z,10.77
2018-10-04T10:54:11.806Z,14.50
2018-10-04T10:56:39.339Z,11.60
2018-10-04T10:59:06.924Z,10.00
2018-10-04T11:01:34.440Z,7.80
2018-10-04T11:04:01.959Z,12.00
2018-10-04T11:06:29.656Z,12.10
2018-10-04T11:08:57.838Z,9.70
2018-10-04T11:11:25.626Z,12.80
2018-10-04T11:13:53.159Z,11.53
2018-10-04T11:16:20.686Z,10.90
2018-10-04T11:18:48.246Z,13.00
2018-10-04T11:21:15.738Z,7.33
2018-10-04T11:23:44.568Z,19.23
2018-10-04T11:26:12.101Z,10.00
2018-10-04T11:28:39.642Z,9.63
2018-10-04T11:31:07.333Z,9.23
2018-10-04T11:33:34.906Z,9.37
2018-10-04T11:36:02.576Z,8.00
2018-10-04T11:38:30.180Z,10.13
2018-10-04T11:40:57.802Z,8.43
2018-10-04T11:43:26.276Z,13.07
2018-10-04T11:45:54.196Z,8.90
2018-10-04T11:48:25.621Z,8.90
2018-10-04T11:50:53.091Z,8.60
2018-10-04T11:53:20.821Z,11.13
2018-10-04T11:55:49.178Z,9.20
2018-10-04T11:58:17.418Z,7.30
2018-10-04T12:00:45.187Z,13.03
2018-10-04T12:03:12.838Z,9.27
2018-10-04T12:05:40.667Z,9.03
2018-10-04T12:08:08.164Z,11.77
2018-10-04T12:10:35.728Z,9.53
2018-10-04T12:13:03.351Z,10.00
2018-10-04T12:15:30.850Z,6.90
2018-10-04T12:17:58.438Z,8.50
2018-10-04T12:20:26.066Z,8.80
2018-10-04T12:22:53.731Z,7.57
2018-10-04T12:25:21.433Z,8.17
2018-10-04T12:27:48.934Z,11.00
2018-10-04T12:30:19.525Z,5.80
2018-10-04T12:32:47.046Z,5.80
2018-10-04T12:35:15.637Z,5.43
2018-10-04T12:37:43.228Z,7.03
2018-10-04T12:40:10.848Z,6.90
2018-10-04T12:42:39.394Z,6.83
2018-10-04T12:45:06.928Z,7.20
2018-10-04T12:47:35.482Z,6.67
2018-10-04T12:50:03.072Z,5.20
2018-10-04T12:52:30.650Z,6.93
2018-10-04T12:54:59.118Z,9.03
2018-10-04T12:57:26.699Z,6.87
2018-10-04T12:59:54.206Z,7.43
2018-10-04T13:02:21.754Z,5.70
2018-10-04T13:04:49.500Z,7.37
2018-10-04T13:07:18.127Z,4.97
2018-10-04T13:09:45.572Z,7.87
2018-10-04T13:12:13.350Z,8.73
2018-10-04T13:14:40.995Z,5.80
2018-10-04T13:17:09.726Z,5.10
2018-10-04T13:19:37.698Z,5.63
2018-10-04T13:22:05.673Z,5.80
2018-10-04T13:24:33.390Z,6.90
2018-10-04T13:27:02.986Z,5.00
2018-10-04T13:29:30.787Z,5.37
2018-10-04T13:31:58.389Z,8.57
2018-10-04T13:34:25.887Z,8.53
2018-10-04T13:36:53.484Z,6.73
2018-10-04T13:39:21.043Z,5.57
2018-10-04T13:41:48.519Z,7.83
2018-10-04T13:44:16.167Z,6.50
2018-10-04T13:46:43.699Z,7.03
2018-10-04T13:49:11.164Z,5.97
2018-10-04T13:51:38.685Z,8.13
2018-10-04T13:54:06.547Z,7.93
2018-10-04T13:56:34.070Z,6.10
2018-10-04T13:59:02.064Z,7.80
2018-10-04T14:01:29.617Z,6.13
2018-10-04T14:03:57.218Z,6.73
2018-10-04T14:06:25.196Z,8.80
2018-10-04T14:08:52.631Z,8.63
2018-10-04T14:11:20.379Z,6.30
2018-10-04T14:13:47.928Z,5.87
2018-10-04T14:16:15.519Z,5.17
2018-10-04T14:18:43.039Z,5.50
2018-10-04T14:21:12.951Z,6.40
2018-10-04T14:23:40.393Z,5.60
2018-10-04T14:26:08.103Z,4.57
2018-10-04T14:28:35.383Z,7.30
2018-10-04T14:31:03.910Z,6.90
2018-10-04T14:33:31.868Z,6.10
2018-10-04T14:35:59.442Z,5.80
2018-10-04T14:38:26.786Z,6.40
2018-10-04T14:40:54.103Z,5.70
2018-10-04T14:43:23.545Z,5.03
2018-10-04T14:45:50.930Z,6.30
2018-10-04T14:48:18.176Z,7.60
2018-10-04T14:50:45.508Z,4.50
2018-10-04T14:53:12.902Z,7.30
2018-10-04T14:55:40.239Z,3.90
2018-10-04T14:58:07.543Z,5.70
2018-10-04T15:00:34.851Z,5.83
2018-10-04T15:03:02.320Z,5.00
2018-10-04T15:05:29.768Z,5.30
2018-10-04T15:07:57.199Z,4.63
2018-10-04T15:10:24.700Z,5.13
2018-10-04T15:12:52.044Z,5.20
2018-10-04T15:15:19.451Z,4.67
2018-10-04T15:17:46.874Z,5.00
2018-10-04T15:20:14.308Z,4.67
2018-10-04T15:22:42.643Z,4.87
2018-10-04T15:25:10.020Z,8.03
2018-10-04T15:27:37.366Z,4.57
2018-10-04T15:30:04.935Z,5.57
2018-10-04T15:32:33.314Z,6.47
2018-10-04T15:35:00.688Z,7.23
2018-10-04T15:37:28.216Z,5.70
2018-10-04T15:39:55.578Z,4.37
2018-10-04T15:42:22.999Z,5.90
2018-10-04T15:44:50.564Z,4.50
2018-10-04T15:47:18.141Z,4.37
2018-10-04T15:49:45.747Z,5.03
2018-10-04T15:52:13.255Z,4.07
2018-10-04T15:54:40.912Z,5.43
2018-10-04T15:57:08.440Z,4.03
2018-10-04T15:59:35.995Z,4.27
2018-10-04T16:02:03.560Z,4.53
2018-10-04T16:04:31.254Z,5.00
2018-10-04T16:06:58.777Z,4.37
2018-10-04T16:09:27.434Z,6.97
2018-10-04T16:11:55.094Z,3.90
2018-10-04T16:14:22.691Z,4.37
2018-10-04T16:16:50.412Z,6.67
2018-10-04T16:19:17.908Z,6.23
2018-10-04T16:21:45.466Z,4.17
2018-10-04T16:24:13.131Z,4.80
2018-10-04T16:26:40.624Z,4.50
2018-10-04T16:29:08.175Z,3.97
2018-10-04T16:31:35.758Z,3.90
2018-10-04T16:34:03.323Z,3.90
2018-10-04T16:36:30.838Z,6.37
2018-10-04T16:38:58.498Z,5.03
2018-10-04T16:41:26.600Z,6.53
2018-10-04T16:43:54.226Z,5.40
2018-10-04T16:46:21.769Z,6.50
2018-10-04T16:48:49.270Z,5.43
2018-10-04T16:51:16.702Z,5.27
2018-10-04T16:53:44.181Z,5.53
2018-10-04T16:56:11.699Z,5.93
2018-10-04T16:58:39.163Z,6.37
2018-10-04T17:01:08.859Z,4.40
2018-10-04T17:03:36.277Z,6.87
2018-10-04T17:06:03.770Z,6.70
2018-10-04T17:08:31.258Z,8.60
2018-10-04T17:10:58.774Z,5.37
2018-10-04T17:13:26.270Z,4.73
2018-10-04T17:15:53.810Z,4.60
2018-10-04T17:18:21.144Z,4.33
2018-10-04T17:20:48.642Z,5.90
2018-10-04T17:23:16.106Z,6.83
2018-10-04T17:25:43.466Z,5.10
2018-10-04T17:28:10.938Z,4.80
2018-10-04T17:30:38.467Z,5.10
2018-10-04T17:33:06.042Z,4.80
2018-10-04T17:35:34.640Z,8.60
2018-10-04T17:38:02.203Z,4.10
2018-10-04T17:40:29.915Z,4.50
2018-10-04T17:42:57.250Z,4.60
2018-10-04T17:45:24.778Z,5.30
2018-10-04T17:47:52.516Z,4.67
2018-10-04T17:50:19.829Z,6.63
2018-10-04T17:52:47.323Z,7.73
2018-10-04T17:55:14.819Z,5.30
2018-10-04T17:57:42.408Z,6.00
2018-10-04T18:00:14.062Z,6.60
2018-10-04T18:02:41.567Z,7.73
2018-10-04T18:05:09.676Z,6.30
2018-10-04T18:07:37.308Z,7.20
2018-10-04T18:10:05.010Z,5.27
2018-10-04T18:12:32.315Z,5.50
2018-10-04T18:14:59.953Z,4.87
2018-10-04T18:17:28.595Z,5.90
2018-10-04T18:19:56.084Z,6.63
2018-10-04T18:22:23.640Z,5.37
2018-10-04T18:24:51.204Z,5.47
2018-10-04T18:27:18.782Z,6.37
2018-10-04T18:29:46.308Z,5.33
2018-10-04T18:32:13.862Z,5.90
2018-10-04T18:34:41.398Z,5.10
2018-10-04T18:37:08.980Z,6.17
2018-10-04T18:39:36.511Z,5.43
2018-10-04T18:42:05.286Z,7.90
2018-10-04T18:44:32.793Z,6.37
2018-10-04T18:47:00.375Z,10.57
2018-10-04T18:49:28.031Z,6.03
2018-10-04T18:51:56.594Z,6.97
2018-10-04T18:54:24.107Z,5.30
2018-10-04T18:56:51.685Z,9.00
2018-10-04T18:59:19.256Z,5.83
2018-10-04T19:01:46.856Z,5.40
2018-10-04T19:04:14.327Z,6.20
2018-10-04T19:06:41.948Z,6.90
2018-10-04T19:09:09.741Z,5.53
2018-10-04T19:11:37.943Z,5.63
2018-10-04T19:14:05.781Z,5.23
2018-10-04T19:16:33.347Z,6.10
2018-10-04T19:19:01.255Z,7.40
2018-10-04T19:21:28.827Z,6.77
2018-10-04T19:23:56.623Z,7.93
2018-10-04T19:26:27.525Z,6.33
2018-10-04T19:28:55.282Z,8.30
2018-10-04T19:31:22.601Z,8.30
2018-10-04T19:33:49.917Z,7.30
2018-10-04T19:36:17.298Z,7.10
2018-10-04T19:38:44.572Z,6.20
2018-10-04T19:41:11.958Z,7.40
2018-10-04T19:43:39.401Z,7.60
2018-10-04T19:46:06.863Z,6.57
2018-10-04T19:48:34.199Z,6.80
2018-10-04T19:51:01.549Z,6.67
2018-10-04T19:53:28.935Z,7.23
2018-10-04T19:55:56.657Z,8.30
2018-10-04T19:58:25.011Z,6.63
2018-10-04T20:00:52.344Z,7.53
2018-10-04T20:06:05.430Z,8.28
2018-10-04T20:08:38.059Z,8.50
2018-10-04T20:11:10.393Z,9.40
2018-10-04T20:13:42.048Z,8.20
2018-10-04T20:16:14.492Z,7.40
2018-10-04T20:18:50.978Z,11.18
2018-10-04T20:21:21.985Z,9.50
2018-10-04T20:23:54.616Z,12.03
2018-10-04T20:26:24.962Z,8.53
2018-10-04T20:28:57.201Z,8.90
2018-10-04T20:31:32.611Z,8.50
2018-10-04T20:34:06.175Z,14.28
2018-10-04T20:36:39.609Z,11.48
2018-10-04T20:39:11.705Z,10.88
2018-10-04T20:41:41.502Z,13.05
2018-10-04T20:44:14.343Z,11.35
2018-10-04T20:46:45.739Z,11.48
2018-10-04T20:49:15.645Z,10.40
2018-10-04T20:51:50.275Z,11.73
2018-10-04T20:54:24.740Z,9.43
2018-10-04T20:56:55.230Z,11.20
2018-10-04T20:59:24.822Z,12.03
2018-10-04T21:01:57.832Z,8.80
2018-10-04T21:04:26.598Z,10.72
2018-10-04T21:06:57.489Z,9.85
2018-10-04T21:09:28.269Z,9.60
2018-10-04T21:11:59.884Z,10.13
2018-10-04T21:14:30.312Z,8.15
2018-10-04T21:16:58.713Z,8.95
2018-10-04T21:19:29.061Z,10.50
2018-10-04T21:21:58.038Z,11.40
2018-10-04T21:24:29.036Z,7.83
2018-10-04T21:27:00.805Z,11.90
2018-10-04T21:34:02.461Z,10.78
2018-10-04T21:36:40.086Z,9.25
2018-10-04T21:39:08.395Z,10.95
2018-10-04T21:41:38.022Z,10.05
2018-10-04T21:44:11.705Z,9.70
2018-10-04T21:46:54.131Z,10.85
2018-10-04T21:49:21.784Z,10.25
2018-10-04T21:51:49.474Z,8.80
2018-10-04T21:54:17.184Z,11.63
2018-10-04T21:56:44.843Z,10.58
2018-10-04T21:59:12.835Z,9.23
2018-10-04T22:01:40.596Z,11.63
2018-10-04T22:04:08.205Z,11.53
2018-10-04T22:06:35.660Z,13.48
2018-10-04T22:09:04.103Z,9.75
2018-10-04T22:11:31.589Z,14.18
2018-10-04T22:13:59.061Z,12.55
2018-10-04T22:16:26.559Z,14.43
2018-10-04T22:18:54.333Z,12.20
2018-10-04T22:21:21.886Z,11.95
2018-10-04T22:23:49.591Z,12.60
2018-10-04T22:26:17.229Z,10.58
2018-10-04T22:28:44.903Z,13.30
2018-10-04T22:31:12.620Z,12.85
2018-10-04T22:33:40.158Z,13.15
2018-10-04T22:36:07.794Z,10.15
2018-10-04T22:38:35.398Z,11.95
2018-10-04T22:41:03.107Z,12.10
2018-10-04T22:43:30.768Z,10.18
2018-10-04T22:45:58.470Z,9.45
2018-10-04T22:48:26.107Z,9.98
2018-10-04T22:50:54.136Z,9.80
2018-10-04T22:53:21.849Z,12.03
2018-10-04T22:55:49.497Z,10.25
2018-10-04T22:58:17.438Z,9.48
2018-10-04T23:00:45.069Z,9.33
2018-10-04T23:03:12.726Z,13.58
2018-10-04T23:05:40.473Z,8.98
2018-10-04T23:08:08.114Z,8.13
2018-10-04T23:10:36.074Z,10.23
2018-10-04T23:13:03.673Z,10.68
2018-10-04T23:15:31.402Z,9.35
2018-10-04T23:17:59.638Z,9.33
2018-10-04T23:20:35.248Z,10.18
2018-10-04T23:23:02.866Z,10.28
2018-10-04T23:25:30.466Z,10.55
2018-10-04T23:27:58.112Z,12.40
2018-10-04T23:30:26.236Z,9.75
2018-10-04T23:32:53.911Z,10.85
2018-10-04T23:35:21.585Z,11.33
2018-10-04T23:37:49.487Z,10.30
2018-10-04T23:40:17.096Z,9.03
2018-10-04T23:42:44.668Z,9.55
2018-10-04T23:45:12.438Z,9.93
2018-10-04T23:47:40.099Z,10.80
2018-10-04T23:50:07.788Z,10.82
2018-10-04T23:52:35.788Z,10.75
2018-10-04T23:55:03.521Z,11.68
2018-10-04T23:57:31.203Z,11.08
2018-10-04T23:59:58.877Z,10.20
